createdAt,value
2023-03-29T00:01:42.437Z,8.57
2023-03-29T00:04:27.999Z,8.54
2023-03-29T00:07:14.169Z,8.54
2023-03-29T00:10:01.387Z,8.53
2023-03-29T00:12:46.937Z,8.54
2023-03-29T00:15:32.166Z,8.52
2023-03-29T00:18:17.450Z,8.54
2023-03-29T00:21:02.625Z,8.55
2023-03-29T00:23:47.802Z,8.54
2023-03-29T00:26:32.716Z,8.56
2023-03-29T00:29:17.854Z,8.59
2023-03-29T00:32:03.383Z,8.64
2023-03-29T00:34:50.928Z,8.69
2023-03-29T00:37:37.979Z,8.70
2023-03-29T00:40:23.361Z,8.71
2023-03-29T00:43:13.441Z,8.73
2023-03-29T00:45:58.394Z,8.70
2023-03-29T00:48:43.817Z,8.72
2023-03-29T00:51:32.868Z,8.79
2023-03-29T00:54:18.798Z,8.86
2023-03-29T00:57:05.226Z,8.82
2023-03-29T00:59:52.867Z,8.82
2023-03-29T01:02:40.133Z,8.82
2023-03-29T01:05:33.850Z,8.83
2023-03-29T01:08:26.282Z,8.87
2023-03-29T01:11:22.450Z,8.92
2023-03-29T01:14:18.830Z,8.96
2023-03-29T01:17:04.599Z,8.99
2023-03-29T01:19:58.992Z,9.00
2023-03-29T01:23:17.773Z,9.04
2023-03-29T01:26:18.024Z,9.02
2023-03-29T01:29:15.726Z,9.15
2023-03-29T01:32:23.397Z,9.16
2023-03-29T01:35:19.455Z,9.19
2023-03-29T01:38:13.418Z,9.21
2023-03-29T01:40:58.735Z,9.20
2023-03-29T01:43:58.625Z,9.25
2023-03-29T01:46:51.796Z,9.23
2023-03-29T01:49:45.348Z,9.27
2023-03-29T01:52:36.346Z,9.28
2023-03-29T01:55:32.184Z,9.33
2023-03-29T01:58:19.228Z,9.27
2023-03-29T02:01:10.444Z,9.32
2023-03-29T02:04:01.772Z,9.33
2023-03-29T02:06:47.944Z,9.34
2023-03-29T02:09:36.160Z,9.40
2023-03-29T02:12:22.214Z,9.41
2023-03-29T02:15:13.241Z,9.35
2023-03-29T02:17:59.154Z,9.31
2023-03-29T02:20:48.553Z,9.37
2023-03-29T02:23:40.996Z,9.33
2023-03-29T02:26:26.305Z,9.33
2023-03-29T02:29:11.721Z,9.32
2023-03-29T02:32:08.703Z,9.40
2023-03-29T02:34:56.597Z,9.42
2023-03-29T02:37:45.104Z,9.46
2023-03-29T02:40:33.261Z,9.38
2023-03-29T02:43:20.742Z,9.45
2023-03-29T02:46:07.877Z,9.46
2023-03-29T02:48:54.875Z,9.40
2023-03-29T02:51:39.956Z,9.45
2023-03-29T02:54:29.983Z,9.47
2023-03-29T02:57:15.502Z,9.48
2023-03-29T03:00:01.172Z,9.47
2023-03-29T03:02:48.023Z,9.51
2023-03-29T03:05:33.853Z,9.54
2023-03-29T03:08:19.211Z,9.53
2023-03-29T03:11:04.448Z,9.53
2023-03-29T03:13:49.623Z,9.54
2023-03-29T03:16:35.250Z,9.54
2023-03-29T03:19:20.425Z,9.53
2023-03-29T03:22:06.108Z,9.56
2023-03-29T03:24:50.942Z,9.54
2023-03-29T03:27:37.007Z,9.55
2023-03-29T03:30:22.286Z,9.57
2023-03-29T03:33:07.921Z,9.58
2023-03-29T03:35:57.158Z,9.56
2023-03-29T03:38:43.995Z,9.56
2023-03-29T03:41:29.119Z,9.56
2023-03-29T03:44:14.470Z,9.53
2023-03-29T03:46:59.423Z,9.49
2023-03-29T03:49:44.423Z,9.51
2023-03-29T03:52:29.801Z,9.52
2023-03-29T03:55:15.413Z,9.52
2023-03-29T03:58:01.040Z,9.52
2023-03-29T04:00:50.246Z,9.53
2023-03-29T04:03:35.945Z,9.56
2023-03-29T04:06:21.167Z,9.54
2023-03-29T04:09:06.383Z,9.54
2023-03-29T04:11:53.159Z,9.58
2023-03-29T04:14:38.322Z,9.60
2023-03-29T04:17:23.750Z,9.60
2023-03-29T04:20:12.353Z,9.59
2023-03-29T04:22:57.721Z,9.52
2023-03-29T04:25:43.356Z,9.47
2023-03-29T04:28:28.395Z,9.58
2023-03-29T04:31:15.051Z,9.51
2023-03-29T04:34:00.591Z,9.56
2023-03-29T04:36:45.841Z,9.57
2023-03-29T04:39:32.102Z,9.53
2023-03-29T04:42:17.801Z,9.53
2023-03-29T04:45:03.200Z,9.56
2023-03-29T04:47:49.022Z,9.56
2023-03-29T04:50:36.203Z,9.53
2023-03-29T04:53:22.301Z,9.52
2023-03-29T04:56:08.126Z,9.55
2023-03-29T04:58:53.112Z,9.56
2023-03-29T05:01:38.959Z,9.53
2023-03-29T05:04:24.723Z,9.60
2023-03-29T05:07:10.207Z,9.61
2023-03-29T05:09:55.076Z,9.60
2023-03-29T05:12:40.291Z,9.58
2023-03-29T05:15:25.694Z,9.58
2023-03-29T05:18:10.933Z,9.59
2023-03-29T05:20:57.904Z,9.61
2023-03-29T05:23:43.364Z,9.55
2023-03-29T05:26:29.581Z,9.49
2023-03-29T05:29:14.634Z,9.62
2023-03-29T05:31:59.725Z,9.59
2023-03-29T05:34:45.125Z,9.61
2023-03-29T05:37:31.725Z,9.64
2023-03-29T05:40:17.113Z,9.64
2023-03-29T05:43:02.817Z,9.62
2023-03-29T05:45:48.047Z,9.64
2023-03-29T05:48:33.726Z,9.66
2023-03-29T05:51:24.453Z,9.68
2023-03-29T05:54:09.721Z,9.69
2023-03-29T05:56:54.943Z,9.71
2023-03-29T05:59:40.092Z,9.70
2023-03-29T06:02:25.676Z,9.75
2023-03-29T06:05:10.926Z,9.77
2023-03-29T06:07:56.734Z,9.77
2023-03-29T06:10:42.940Z,9.79
2023-03-29T06:13:33.452Z,9.83
2023-03-29T06:16:19.104Z,9.84
2023-03-29T06:19:05.327Z,9.87
2023-03-29T06:21:52.910Z,9.88
2023-03-29T06:24:38.237Z,9.91
2023-03-29T06:27:23.741Z,9.90
2023-03-29T06:30:09.349Z,9.89
2023-03-29T06:32:55.610Z,9.94
2023-03-29T06:35:47.205Z,9.91
2023-03-29T06:38:32.627Z,9.98
2023-03-29T06:41:17.927Z,10.03
2023-03-29T06:44:04.104Z,10.02
2023-03-29T06:46:48.975Z,10.78
2023-03-29T06:49:34.139Z,11.72
2023-03-29T06:52:19.543Z,11.04
2023-03-29T06:55:07.653Z,10.55
2023-03-29T06:57:54.339Z,10.31
2023-03-29T07:00:39.811Z,10.30
2023-03-29T07:03:24.725Z,10.35
2023-03-29T07:06:10.129Z,10.26
2023-03-29T07:08:59.594Z,10.28
2023-03-29T07:11:46.372Z,10.27
2023-03-29T07:14:31.451Z,10.26
2023-03-29T07:17:16.767Z,10.29
2023-03-29T07:20:02.169Z,10.25
2023-03-29T07:22:48.206Z,10.21
2023-03-29T07:25:34.035Z,10.24
2023-03-29T07:28:20.097Z,10.29
2023-03-29T07:31:07.836Z,10.26
2023-03-29T07:33:53.687Z,10.26
2023-03-29T07:36:39.325Z,10.24
2023-03-29T07:39:26.196Z,10.20
2023-03-29T07:42:11.336Z,10.29
2023-03-29T07:44:56.649Z,10.30
2023-03-29T07:47:42.076Z,10.40
2023-03-29T07:50:27.576Z,10.35
2023-03-29T07:53:13.124Z,10.39
2023-03-29T07:55:58.100Z,10.47
2023-03-29T07:58:43.223Z,10.51
2023-03-29T08:01:28.560Z,10.59
2023-03-29T08:04:13.554Z,10.56
2023-03-29T08:06:59.046Z,10.69
2023-03-29T08:09:45.006Z,10.81
2023-03-29T08:12:30.372Z,10.91
2023-03-29T08:15:16.594Z,11.03
2023-03-29T08:18:01.562Z,11.01
2023-03-29T08:20:46.487Z,11.04
2023-03-29T08:23:31.741Z,11.00
2023-03-29T08:26:16.766Z,11.01
2023-03-29T08:29:01.839Z,10.99
2023-03-29T08:31:47.186Z,10.90
2023-03-29T08:34:32.132Z,11.07
2023-03-29T08:37:17.733Z,11.15
2023-03-29T08:40:03.366Z,11.21
2023-03-29T08:42:57.997Z,11.17
2023-03-29T08:46:07.652Z,11.12
2023-03-29T08:49:02.324Z,11.08
2023-03-29T08:51:53.059Z,11.09
2023-03-29T08:54:45.896Z,11.10
2023-03-29T08:57:50.550Z,11.17
2023-03-29T09:00:47.785Z,11.24
2023-03-29T09:03:39.052Z,11.31
2023-03-29T09:06:24.406Z,11.37
2023-03-29T09:09:17.005Z,11.34
2023-03-29T09:12:19.826Z,11.42
2023-03-29T09:15:19.451Z,11.41
2023-03-29T09:18:13.928Z,11.45
2023-03-29T09:21:14.562Z,11.45
2023-03-29T09:24:29.586Z,11.48
2023-03-29T09:27:23.801Z,11.44
2023-03-29T09:30:44.580Z,11.51
2023-03-29T09:33:43.225Z,11.55
2023-03-29T09:37:16.337Z,11.57
2023-03-29T09:40:06.859Z,11.53
2023-03-29T09:42:54.817Z,11.63
2023-03-29T09:45:41.263Z,11.62
2023-03-29T09:48:29.130Z,11.67
2023-03-29T09:51:14.604Z,11.68
2023-03-29T09:54:00.727Z,11.70
2023-03-29T09:56:45.966Z,11.59
2023-03-29T09:59:31.457Z,11.67
2023-03-29T10:02:19.787Z,11.64
2023-03-29T10:05:07.428Z,11.68
2023-03-29T10:07:57.633Z,11.76
2023-03-29T10:10:42.562Z,11.77
2023-03-29T10:13:33.024Z,11.70
2023-03-29T10:16:21.362Z,11.79
2023-03-29T10:19:37.360Z,11.78
2023-03-29T10:22:28.303Z,11.79
2023-03-29T10:25:15.727Z,11.80
2023-03-29T10:28:13.114Z,11.85
2023-03-29T10:31:01.546Z,11.82
2023-03-29T10:33:57.839Z,11.85
2023-03-29T10:36:51.130Z,11.84
2023-03-29T10:39:38.991Z,11.88
2023-03-29T10:42:25.375Z,11.90
2023-03-29T10:45:41.035Z,11.89
2023-03-29T10:48:31.167Z,11.86
2023-03-29T10:51:17.163Z,11.86
2023-03-29T10:54:03.570Z,11.93
2023-03-29T10:57:03.289Z,11.91
2023-03-29T11:00:00.311Z,11.96
2023-03-29T11:03:25.127Z,11.96
2023-03-29T11:06:19.418Z,11.96
2023-03-29T11:09:32.524Z,11.88
2023-03-29T11:12:28.002Z,11.86
2023-03-29T11:15:30.610Z,11.89
2023-03-29T11:18:35.365Z,11.84
2023-03-29T11:21:39.755Z,11.94
2023-03-29T11:25:02.000Z,11.89
2023-03-29T11:28:06.549Z,11.97
2023-03-29T11:31:04.309Z,12.10
2023-03-29T11:33:56.241Z,12.18
2023-03-29T11:37:03.993Z,12.23
2023-03-29T11:39:52.956Z,12.21
2023-03-29T11:42:43.886Z,12.22
2023-03-29T11:45:46.280Z,12.27
2023-03-29T11:48:40.548Z,12.22
2023-03-29T11:51:34.573Z,12.26
2023-03-29T11:54:31.182Z,12.32
2023-03-29T11:57:26.088Z,12.44
2023-03-29T12:00:18.924Z,12.51
2023-03-29T12:03:15.348Z,12.52
2023-03-29T12:06:22.282Z,12.57
2023-03-29T12:09:13.687Z,12.60
2023-03-29T12:12:11.628Z,12.56
2023-03-29T12:15:10.952Z,12.58
2023-03-29T12:18:21.331Z,12.62
2023-03-29T12:21:13.305Z,12.77
2023-03-29T12:23:58.624Z,12.99
2023-03-29T12:26:48.869Z,13.15
2023-03-29T12:30:16.390Z,13.28
2023-03-29T12:33:15.679Z,13.42
2023-03-29T12:36:21.767Z,13.43
2023-03-29T12:39:15.309Z,13.48
2023-03-29T12:42:17.032Z,13.61
2023-03-29T12:45:02.297Z,13.68
2023-03-29T12:47:51.492Z,13.80
2023-03-29T12:50:46.095Z,13.93
2023-03-29T12:53:36.462Z,14.01
2023-03-29T12:56:23.762Z,14.06
2023-03-29T12:59:33.698Z,14.13
2023-03-29T13:02:18.631Z,14.28
2023-03-29T13:05:05.485Z,14.22
2023-03-29T13:07:51.944Z,14.41
2023-03-29T13:10:41.319Z,14.46
2023-03-29T13:13:41.118Z,14.48
2023-03-29T13:16:32.841Z,14.65
2023-03-29T13:19:47.451Z,14.54
2023-03-29T13:22:57.553Z,14.47
2023-03-29T13:25:46.114Z,14.41
2023-03-29T13:29:09.619Z,14.31
2023-03-29T13:32:13.319Z,14.32
2023-03-29T13:35:07.413Z,14.46
2023-03-29T13:37:54.061Z,14.58
2023-03-29T13:41:03.746Z,14.58
2023-03-29T13:43:54.336Z,14.73
2023-03-29T13:46:42.250Z,14.67
2023-03-29T13:49:31.850Z,14.54
2023-03-29T13:52:24.277Z,14.46
2023-03-29T13:55:21.485Z,14.58
2023-03-29T13:58:24.052Z,14.61
2023-03-29T14:01:24.808Z,14.75
2023-03-29T14:04:18.022Z,14.73
2023-03-29T14:07:04.092Z,14.90
2023-03-29T14:09:50.990Z,15.04
2023-03-29T14:12:42.072Z,15.02
2023-03-29T14:15:41.532Z,14.94
2023-03-29T14:18:28.629Z,14.86
2023-03-29T14:21:14.538Z,14.90
2023-03-29T14:24:04.160Z,14.91
2023-03-29T14:26:49.741Z,14.91
2023-03-29T14:29:36.001Z,14.87
2023-03-29T14:32:29.068Z,14.91
2023-03-29T14:35:14.543Z,14.88
2023-03-29T14:38:01.596Z,14.90
2023-03-29T14:40:46.524Z,14.88
2023-03-29T14:43:32.192Z,14.82
2023-03-29T14:46:20.502Z,14.83
2023-03-29T14:49:06.330Z,14.98
2023-03-29T14:51:53.003Z,14.98
2023-03-29T14:54:40.874Z,14.97
2023-03-29T14:57:29.078Z,14.95
2023-03-29T15:00:31.480Z,14.97
2023-03-29T15:03:17.603Z,14.97
2023-03-29T15:06:04.811Z,14.99
2023-03-29T15:09:03.724Z,14.96
2023-03-29T15:11:54.056Z,15.03
2023-03-29T15:14:39.394Z,15.00
2023-03-29T15:17:51.085Z,15.04
2023-03-29T15:20:39.671Z,15.04
2023-03-29T15:23:26.123Z,14.98
2023-03-29T15:26:20.660Z,15.00
2023-03-29T15:29:23.185Z,14.96
2023-03-29T15:32:09.635Z,14.99
2023-03-29T15:35:04.897Z,14.98
2023-03-29T15:37:52.435Z,15.02
2023-03-29T15:40:37.587Z,15.04
2023-03-29T15:43:23.581Z,15.10
2023-03-29T15:46:12.137Z,15.20
2023-03-29T15:48:57.674Z,15.10
2023-03-29T15:51:42.775Z,15.07
2023-03-29T15:54:29.132Z,15.08
2023-03-29T15:57:16.297Z,15.18
2023-03-29T16:00:03.970Z,15.23
2023-03-29T16:02:49.459Z,15.11
2023-03-29T16:05:34.845Z,15.05
2023-03-29T16:08:19.848Z,15.03
2023-03-29T16:11:06.744Z,14.91
2023-03-29T16:13:51.655Z,14.89
2023-03-29T16:16:37.060Z,14.89
2023-03-29T16:19:22.624Z,14.88
2023-03-29T16:22:07.900Z,14.78
2023-03-29T16:24:53.330Z,14.78
2023-03-29T16:27:38.447Z,14.72
2023-03-29T16:30:24.906Z,14.69
2023-03-29T16:33:11.261Z,14.64
2023-03-29T16:35:56.526Z,14.60
2023-03-29T16:38:42.101Z,14.64
2023-03-29T16:41:27.711Z,14.65
2023-03-29T16:44:19.580Z,14.65
2023-03-29T16:47:07.046Z,14.60
2023-03-29T16:49:52.321Z,14.58
2023-03-29T16:52:37.913Z,14.54
2023-03-29T16:55:23.140Z,14.50
2023-03-29T16:58:08.907Z,14.42
2023-03-29T17:00:54.526Z,14.31
2023-03-29T17:03:41.035Z,14.30
2023-03-29T17:06:26.587Z,14.30
2023-03-29T17:09:11.814Z,14.24
2023-03-29T17:11:56.689Z,14.26
2023-03-29T17:14:41.974Z,14.32
2023-03-29T17:17:27.235Z,14.27
2023-03-29T17:20:12.372Z,14.27
2023-03-29T17:22:57.667Z,14.21
2023-03-29T17:25:43.686Z,14.11
2023-03-29T17:28:29.340Z,14.05
2023-03-29T17:31:14.778Z,14.03
2023-03-29T17:34:00.224Z,13.95
2023-03-29T17:36:46.437Z,13.90
2023-03-29T17:39:32.126Z,13.89
2023-03-29T17:42:17.357Z,13.83
2023-03-29T17:45:02.777Z,13.82
2023-03-29T17:47:47.871Z,13.77
2023-03-29T17:50:33.129Z,13.75
2023-03-29T17:53:18.325Z,13.70
2023-03-29T17:56:04.021Z,13.60
2023-03-29T17:58:50.061Z,13.54
2023-03-29T18:01:37.055Z,13.57
2023-03-29T18:04:23.912Z,13.49
2023-03-29T18:07:08.993Z,13.49
2023-03-29T18:09:54.285Z,13.49
2023-03-29T18:12:39.639Z,13.45
2023-03-29T18:15:24.788Z,13.35
2023-03-29T18:18:10.231Z,13.33
2023-03-29T18:20:55.397Z,13.33
2023-03-29T18:23:42.207Z,13.29
2023-03-29T18:26:28.516Z,13.19
2023-03-29T18:29:13.651Z,13.15
2023-03-29T18:32:02.825Z,13.22
2023-03-29T18:34:48.064Z,13.15
2023-03-29T18:37:33.002Z,13.22
2023-03-29T18:40:20.491Z,13.22
2023-03-29T18:43:05.855Z,13.19
2023-03-29T18:45:51.379Z,13.19
2023-03-29T18:48:39.021Z,13.19
2023-03-29T18:51:25.806Z,13.13
2023-03-29T18:54:11.163Z,13.12
2023-03-29T18:56:58.693Z,13.16
2023-03-29T18:59:44.407Z,13.15
2023-03-29T19:02:29.332Z,13.13
2023-03-29T19:05:15.059Z,13.12
2023-03-29T19:08:01.017Z,13.09
2023-03-29T19:10:46.802Z,13.03
2023-03-29T19:13:32.011Z,12.94
2023-03-29T19:16:17.594Z,12.86
2023-03-29T19:19:04.932Z,12.85
2023-03-29T19:21:50.080Z,12.71
2023-03-29T19:24:35.399Z,12.64
2023-03-29T19:27:20.456Z,12.64
2023-03-29T19:30:06.449Z,12.62
2023-03-29T19:32:52.227Z,12.59
2023-03-29T19:35:37.419Z,12.63
2023-03-29T19:38:22.417Z,12.54
2023-03-29T19:41:07.816Z,12.58
2023-03-29T19:43:53.099Z,12.55
2023-03-29T19:46:38.373Z,12.46
2023-03-29T19:49:23.518Z,12.35
2023-03-29T19:52:08.613Z,12.21
2023-03-29T19:54:54.763Z,12.07
2023-03-29T19:57:39.731Z,12.11
2023-03-29T20:00:25.137Z,12.05
2023-03-29T20:03:10.546Z,12.10
2023-03-29T20:05:56.946Z,12.08
2023-03-29T20:08:41.789Z,12.04
2023-03-29T20:11:26.892Z,12.00
2023-03-29T20:14:12.335Z,12.04
2023-03-29T20:16:57.667Z,12.00
2023-03-29T20:19:44.113Z,11.94
2023-03-29T20:22:31.190Z,11.95
2023-03-29T20:25:16.591Z,11.95
2023-03-29T20:28:02.001Z,11.96
2023-03-29T20:30:51.140Z,11.95
2023-03-29T20:33:36.853Z,11.92
2023-03-29T20:36:23.339Z,11.97
2023-03-29T20:39:08.902Z,11.96
2023-03-29T20:41:54.220Z,12.01
2023-03-29T20:44:39.333Z,12.02
2023-03-29T20:47:24.725Z,12.02
2023-03-29T20:50:10.673Z,12.03
2023-03-29T20:52:57.058Z,12.05
2023-03-29T20:55:42.802Z,12.06
2023-03-29T20:58:29.027Z,12.09
2023-03-29T21:01:14.381Z,12.10
2023-03-29T21:03:59.913Z,12.12
2023-03-29T21:06:51.351Z,12.10
2023-03-29T21:09:36.710Z,12.14
2023-03-29T21:12:23.517Z,12.16
2023-03-29T21:15:10.449Z,12.17
2023-03-29T21:17:55.866Z,12.16
2023-03-29T21:20:41.329Z,12.16
2023-03-29T21:23:27.055Z,12.15
2023-03-29T21:26:12.538Z,12.14
2023-03-29T21:28:57.612Z,12.11
2023-03-29T21:31:43.166Z,12.10
2023-03-29T21:34:28.522Z,12.12
2023-03-29T21:37:15.163Z,12.12
2023-03-29T21:40:00.596Z,12.13
2023-03-29T21:42:45.749Z,12.12
2023-03-29T21:45:30.971Z,12.13
2023-03-29T21:48:16.747Z,12.17
2023-03-29T21:51:02.599Z,12.18
2023-03-29T21:53:47.864Z,12.19
2023-03-29T21:56:33.099Z,12.18
2023-03-29T21:59:18.374Z,12.20
2023-03-29T22:02:03.434Z,12.16
2023-03-29T22:05:33.129Z,12.17
2023-03-29T22:08:18.977Z,12.18
2023-03-29T22:11:10.819Z,12.15
2023-03-29T22:13:56.207Z,12.18
2023-03-29T22:16:41.637Z,12.18
2023-03-29T22:19:26.812Z,12.19
2023-03-29T22:22:14.473Z,12.18
2023-03-29T22:24:59.585Z,12.22
2023-03-29T22:28:24.492Z,12.22
2023-03-29T22:31:13.168Z,12.19
2023-03-29T22:33:58.792Z,12.19
2023-03-29T22:36:43.901Z,12.16
2023-03-29T22:39:29.839Z,12.20
2023-03-29T22:42:14.937Z,12.20
2023-03-29T22:45:00.444Z,12.20
2023-03-29T22:47:45.534Z,12.18
2023-03-29T22:50:31.626Z,12.17
2023-03-29T22:53:16.885Z,12.13
2023-03-29T22:56:02.505Z,12.11
2023-03-29T22:58:47.510Z,12.10
2023-03-29T23:01:32.818Z,12.08
2023-03-29T23:04:18.079Z,12.08
2023-03-29T23:07:03.202Z,12.08
2023-03-29T23:09:48.330Z,12.09
2023-03-29T23:12:36.177Z,12.09
2023-03-29T23:15:22.797Z,12.05
2023-03-29T23:18:09.358Z,12.06
2023-03-29T23:20:56.518Z,11.97
2023-03-29T23:23:42.238Z,12.00
2023-03-29T23:26:27.841Z,11.97
2023-03-29T23:29:13.618Z,11.98
2023-03-29T23:31:59.484Z,11.97
2023-03-29T23:34:45.059Z,11.93
2023-03-29T23:37:30.578Z,11.95
2023-03-29T23:40:15.636Z,11.96
2023-03-29T23:43:00.813Z,11.95
2023-03-29T23:45:46.306Z,11.89
2023-03-29T23:49:27.834Z,11.91
2023-03-29T23:52:13.217Z,11.86
2023-03-29T23:54:59.503Z,11.88
2023-03-29T23:57:44.776Z,11.89
